Page Field
KFMY : now visible

Airfield :











YOU CAN JOIN US ON...

 
LOGIN :

Register | Disclaimer

   EN    FR    IT 

 









Legend :    VFR   Marginal VFR   IFR   Intensive IFR   Very Intensive IFR
Visi :
Ceiling :
>= 8 km
>= 3000ft
5 to 8 km
1000 to 3000 ft
1500m to 5 km
500 to 1000 ft
800 to 1500m
200 to 500 ft
< 800m
< 200 ft
Symbols :   Thunderstorms  Fog  Heavy snow  Heavy precipitations  Wind > 20 kt






- Airport Elevation : 17 ft


KFMY - Page Field

CURRENT METAR :
  • 031353Z 20003KT 10SM SCT027 29/24 A3002 RMK AO2 RAE21 TSE1255B05E23 SLP166 P0000 T02940244

EXPIRED METARs :
  • 031343Z 20003KT 10SM FEW027 FEW035 29/23 A3002 RMK AO2 LTG DSNT S AND W RAE21 TSE1255B05E23 P0000 T02890233
  • 031329Z 18004KT 10SM VCTS FEW027 SCT035 BKN070 27/23 A3001 RMK AO2 LTG DSNT E AND S AND W RAE21 TSE1255B05E23 P0000 T02720233
  • 031311Z 16007KT 10SM -TSRA FEW028 BKN070 OVC090 26/23 A3002 RMK AO2 TSE1255B05 P0000 T02610233
  • 031257Z 21006KT 8SM -RA FEW029 SCT050 BKN070 27/22 A3001 RMK AO2 TSE55 P0000 T02670217
  • 031230Z 00000KT 10SM TS FEW030 29/26 A3001 RMK AO2 TSB24 T02940256
  • 031220Z 00000KT 10SM VCTS CLR 29/25 A3001 RMK AO2 T02940250
  • 031153Z 14004KT 10SM FEW035 28/25 A3000 RMK AO2 SLP161 T02780250 10278 20261 53014

TAF KFMY
Valid from the 03 at 12:00 until the 04 at 12:00 UTC


031142Z 0312/0412 22005KT P6SM SCT030 BKN100
FM031500 25007KT P6SM VCTS SCT020CB OVC040
TEMPO 0320/0322 27020G35KT 2SM TSRA BKN020CB
FM040000 23006KT P6SM VCSH SCT020 BKN040
FM040600 16005KT P6SM SCT020 BKN250
FM041100 16004KT 6SM SHRA VCTS BKN030CB BKN100
KZMA FIR / North America



MET'MAP, your aeronautical weather chart ! - Copyright ORBIFLY December 2007 - Disclaimer

ORBIFLY MET'MAP TEAM :

Programming & Development : Alexandra Zaïnal
Concept & original design : Baudouin d'Aumeries
Assistance for programming : Marc-Olivier Méhu
Technical & hardware support : Manuel Goepfert

Contact : metmap@orbifly.com




SOURCES & CREDITS :

   NOAA       Earth
Advisory